sensor_id;sensor_type;location;lat;lon;timestamp;pressure;altitude;pressure_sealevel;temperature;humidity
14273;BME280;7220;49.450;11.052;2023-04-26T00:02:15;98114.72;;;7.31;66.62
14273;BME280;7220;49.450;11.052;2023-04-26T00:06:17;98120.94;;;7.30;66.42
14273;BME280;7220;49.450;11.052;2023-04-26T00:10:17;98118.69;;;7.21;65.53
14273;BME280;7220;49.450;11.052;2023-04-26T00:14:18;98121.72;;;7.12;66.17
14273;BME280;7220;49.450;11.052;2023-04-26T00:18:18;98123.44;;;7.13;66.89
14273;BME280;7220;49.450;11.052;2023-04-26T00:22:18;98117.19;;;7.14;66.30
14273;BME280;7220;49.450;11.052;2023-04-26T00:26:19;98117.34;;;7.10;65.33
14273;BME280;7220;49.450;11.052;2023-04-26T00:30:20;98119.47;;;7.23;65.58
14273;BME280;7220;49.450;11.052;2023-04-26T00:34:21;98110.09;;;6.93;66.14
14273;BME280;7220;49.450;11.052;2023-04-26T00:38:21;98129.28;;;6.99;65.93
14273;BME280;7220;49.450;11.052;2023-04-26T00:42:22;98132.09;;;6.94;65.69
14273;BME280;7220;49.450;11.052;2023-04-26T00:46:22;98124.16;;;6.94;65.83
14273;BME280;7220;49.450;11.052;2023-04-26T00:50:23;98114.28;;;6.77;65.80
14273;BME280;7220;49.450;11.052;2023-04-26T00:54:23;98128.44;;;6.74;66.26
14273;BME280;7220;49.450;11.052;2023-04-26T00:58:24;98127.19;;;6.85;65.56
14273;BME280;7220;49.450;11.052;2023-04-26T01:02:25;98140.38;;;6.85;66.20
14273;BME280;7220;49.450;11.052;2023-04-26T01:06:29;98139.16;;;6.71;65.56
14273;BME280;7220;49.450;11.052;2023-04-26T01:10:33;98134.34;;;6.59;66.07
14273;BME280;7220;49.450;11.052;2023-04-26T01:14:33;98134.97;;;6.66;65.70
14273;BME280;7220;49.450;11.052;2023-04-26T01:18:35;98149.16;;;6.63;66.34
14273;BME280;7220;49.450;11.052;2023-04-26T01:22:36;98142.84;;;6.43;67.04
14273;BME280;7220;49.450;11.052;2023-04-26T01:26:39;98144.31;;;6.51;66.34
14273;BME280;7220;49.450;11.052;2023-04-26T01:30:44;98146.13;;;6.50;66.39
14273;BME280;7220;49.450;11.052;2023-04-26T01:34:44;98162.78;;;6.52;66.16
14273;BME280;7220;49.450;11.052;2023-04-26T01:38:45;98147.53;;;6.59;66.08
14273;BME280;7220;49.450;11.052;2023-04-26T01:42:45;98152.72;;;6.62;66.31
14273;BME280;7220;49.450;11.052;2023-04-26T01:46:46;98144.63;;;6.67;66.27
14273;BME280;7220;49.450;11.052;2023-04-26T01:50:46;98148.94;;;6.45;66.89
14273;BME280;7220;49.450;11.052;2023-04-26T01:54:46;98147.84;;;6.73;64.99
14273;BME280;7220;49.450;11.052;2023-04-26T01:58:47;98150.91;;;6.62;66.08
14273;BME280;7220;49.450;11.052;2023-04-26T02:02:47;98150.75;;;6.67;65.87
14273;BME280;7220;49.450;11.052;2023-04-26T02:06:47;98145.78;;;6.59;65.55
14273;BME280;7220;49.450;11.052;2023-04-26T02:10:47;98156.28;;;6.61;66.08
14273;BME280;7220;49.450;11.052;2023-04-26T02:14:48;98161.31;;;6.67;66.11
14273;BME280;7220;49.450;11.052;2023-04-26T02:18:48;98156.66;;;6.74;64.58
14273;BME280;7220;49.450;11.052;2023-04-26T02:22:48;98155.47;;;6.59;65.20
14273;BME280;7220;49.450;11.052;2023-04-26T02:26:49;98163.84;;;6.46;66.14
14273;BME280;7220;49.450;11.052;2023-04-26T02:30:49;98167.41;;;6.45;65.52
14273;BME280;7220;49.450;11.052;2023-04-26T02:34:50;98155.97;;;6.45;65.10
14273;BME280;7220;49.450;11.052;2023-04-26T02:38:51;98152.13;;;6.06;66.20
14273;BME280;7220;49.450;11.052;2023-04-26T02:42:51;98165.09;;;6.12;66.45
14273;BME280;7220;49.450;11.052;2023-04-26T02:46:51;98174.75;;;6.13;66.06
14273;BME280;7220;49.450;11.052;2023-04-26T02:50:52;98164.59;;;6.01;67.00
14273;BME280;7220;49.450;11.052;2023-04-26T02:54:52;98164.75;;;5.96;66.62
14273;BME280;7220;49.450;11.052;2023-04-26T02:58:52;98171.59;;;6.02;66.27
14273;BME280;7220;49.450;11.052;2023-04-26T03:02:52;98169.28;;;5.93;66.72
14273;BME280;7220;49.450;11.052;2023-04-26T03:06:53;98169.88;;;5.76;67.81
14273;BME280;7220;49.450;11.052;2023-04-26T03:10:53;98173.56;;;5.70;67.54
14273;BME280;7220;49.450;11.052;2023-04-26T03:14:53;98174.75;;;5.61;67.83
14273;BME280;7220;49.450;11.052;2023-04-26T03:18:54;98169.16;;;5.71;67.74
14273;BME280;7220;49.450;11.052;2023-04-26T03:22:54;98174.25;;;5.50;69.29
14273;BME280;7220;49.450;11.052;2023-04-26T03:26:54;98180.88;;;5.62;68.72
14273;BME280;7220;49.450;11.052;2023-04-26T03:30:55;98186.03;;;5.40;69.30
14273;BME280;7220;49.450;11.052;2023-04-26T03:34:55;98178.28;;;5.35;69.71
14273;BME280;7220;49.450;11.052;2023-04-26T03:38:55;98179.41;;;5.26;70.13
14273;BME280;7220;49.450;11.052;2023-04-26T03:42:56;98195.47;;;5.18;70.80
14273;BME280;7220;49.450;11.052;2023-04-26T03:46:56;98190.41;;;5.12;71.16
14273;BME280;7220;49.450;11.052;2023-04-26T03:50:56;98198.25;;;5.14;70.81
14273;BME280;7220;49.450;11.052;2023-04-26T03:54:57;98196.69;;;5.08;71.25
14273;BME280;7220;49.450;11.052;2023-04-26T03:58:57;98208.22;;;5.04;71.33
14273;BME280;7220;49.450;11.052;2023-04-26T04:02:57;98190.66;;;5.04;71.10
14273;BME280;7220;49.450;11.052;2023-04-26T04:06:58;98204.03;;;4.97;71.41
14273;BME280;7220;49.450;11.052;2023-04-26T04:10:59;98209.69;;;4.84;72.14
14273;BME280;7220;49.450;11.052;2023-04-26T04:15:00;98198.34;;;4.82;72.30
14273;BME280;7220;49.450;11.052;2023-04-26T04:19:01;98207.16;;;4.81;71.97
14273;BME280;7220;49.450;11.052;2023-04-26T04:23:01;98206.22;;;4.84;72.29
14273;BME280;7220;49.450;11.052;2023-04-26T04:27:03;98199.34;;;4.78;72.44
14273;BME280;7220;49.450;11.052;2023-04-26T04:31:03;98202.94;;;4.76;72.61
14273;BME280;7220;49.450;11.052;2023-04-26T04:35:05;98214.38;;;4.74;72.62
14273;BME280;7220;49.450;11.052;2023-04-26T04:39:06;98210.16;;;4.69;72.85
14273;BME280;7220;49.450;11.052;2023-04-26T04:43:11;98230.31;;;4.70;72.90
14273;BME280;7220;49.450;11.052;2023-04-26T04:47:11;98230.25;;;4.71;72.88
14273;BME280;7220;49.450;11.052;2023-04-26T04:51:12;98230.38;;;4.68;73.44
14273;BME280;7220;49.450;11.052;2023-04-26T04:55:12;98238.22;;;4.70;73.24
14273;BME280;7220;49.450;11.052;2023-04-26T04:59:12;98233.91;;;4.67;73.95
14273;BME280;7220;49.450;11.052;2023-04-26T05:03:13;98235.47;;;4.73;74.15
14273;BME280;7220;49.450;11.052;2023-04-26T05:07:14;98240.59;;;4.78;74.47
14273;BME280;7220;49.450;11.052;2023-04-26T05:11:14;98239.69;;;4.80;73.66
14273;BME280;7220;49.450;11.052;2023-04-26T05:15:15;98234.56;;;4.74;74.48
14273;BME280;7220;49.450;11.052;2023-04-26T05:19:15;98227.22;;;4.85;74.34
14273;BME280;7220;49.450;11.052;2023-04-26T05:23:15;98258.63;;;4.92;74.51
14273;BME280;7220;49.450;11.052;2023-04-26T05:27:17;98256.63;;;5.00;74.66
14273;BME280;7220;49.450;11.052;2023-04-26T05:31:17;98252.81;;;5.10;74.43
14273;BME280;7220;49.450;11.052;2023-04-26T05:35:18;98251.16;;;5.06;74.43
14273;BME280;7220;49.450;11.052;2023-04-26T05:39:18;98256.84;;;5.22;74.06
14273;BME280;7220;49.450;11.052;2023-04-26T05:43:19;98266.13;;;5.34;73.74
14273;BME280;7220;49.450;11.052;2023-04-26T05:47:20;98274.94;;;5.33;73.94
14273;BME280;7220;49.450;11.052;2023-04-26T05:51:20;98273.00;;;5.40;73.03
14273;BME280;7220;49.450;11.052;2023-04-26T05:55:20;98277.81;;;5.53;72.00
14273;BME280;7220;49.450;11.052;2023-04-26T05:59:21;98278.47;;;5.60;71.86
14273;BME280;7220;49.450;11.052;2023-04-26T06:03:21;98277.72;;;5.57;72.10
14273;BME280;7220;49.450;11.052;2023-04-26T06:07:21;98273.59;;;5.76;71.33
14273;BME280;7220;49.450;11.052;2023-04-26T06:11:22;98272.63;;;5.79;71.28
14273;BME280;7220;49.450;11.052;2023-04-26T06:15:22;98277.69;;;5.85;70.85
14273;BME280;7220;49.450;11.052;2023-04-26T06:19:23;98283.50;;;5.95;70.23
14273;BME280;7220;49.450;11.052;2023-04-26T06:23:23;98285.94;;;6.03;69.57
14273;BME280;7220;49.450;11.052;2023-04-26T06:27:23;98286.56;;;6.09;69.33
14273;BME280;7220;49.450;11.052;2023-04-26T06:31:24;98279.00;;;6.25;68.78
14273;BME280;7220;49.450;11.052;2023-04-26T06:35:24;98278.50;;;6.39;68.18
14273;BME280;7220;49.450;11.052;2023-04-26T06:39:25;98284.31;;;6.49;67.25
14273;BME280;7220;49.450;11.052;2023-04-26T06:43:25;98281.75;;;6.47;66.72
14273;BME280;7220;49.450;11.052;2023-04-26T06:47:26;98290.88;;;6.62;66.61
14273;BME280;7220;49.450;11.052;2023-04-26T06:51:27;98285.91;;;6.78;64.66
14273;BME280;7220;49.450;11.052;2023-04-26T06:55:28;98288.31;;;6.85;64.89
14273;BME280;7220;49.450;11.052;2023-04-26T06:59:29;98280.63;;;6.78;64.50
14273;BME280;7220;49.450;11.052;2023-04-26T07:03:29;98282.97;;;6.86;64.63
14273;BME280;7220;49.450;11.052;2023-04-26T07:07:29;98288.63;;;7.01;64.32
14273;BME280;7220;49.450;11.052;2023-04-26T07:11:30;98290.78;;;7.13;63.41
14273;BME280;7220;49.450;11.052;2023-04-26T07:15:31;98296.97;;;7.12;62.65
14273;BME280;7220;49.450;11.052;2023-04-26T07:19:32;98290.78;;;7.13;62.94
14273;BME280;7220;49.450;11.052;2023-04-26T07:23:32;98286.38;;;7.36;61.05
14273;BME280;7220;49.450;11.052;2023-04-26T07:27:32;98284.03;;;7.50;60.25
14273;BME280;7220;49.450;11.052;2023-04-26T07:31:33;98286.22;;;7.63;60.97
14273;BME280;7220;49.450;11.052;2023-04-26T07:35:33;98287.19;;;7.60;59.12
14273;BME280;7220;49.450;11.052;2023-04-26T07:39:35;98286.25;;;7.61;59.22
14273;BME280;7220;49.450;11.052;2023-04-26T07:43:36;98286.81;;;7.69;58.31
14273;BME280;7220;49.450;11.052;2023-04-26T07:47:36;98284.47;;;7.84;58.12
14273;BME280;7220;49.450;11.052;2023-04-26T07:51:37;98280.03;;;7.84;56.58
14273;BME280;7220;49.450;11.052;2023-04-26T07:55:37;98288.44;;;7.94;55.34
14273;BME280;7220;49.450;11.052;2023-04-26T07:59:37;98283.47;;;8.09;55.73
14273;BME280;7220;49.450;11.052;2023-04-26T08:03:38;98277.34;;;8.27;55.09
14273;BME280;7220;49.450;11.052;2023-04-26T08:07:39;98279.22;;;8.46;54.02
14273;BME280;7220;49.450;11.052;2023-04-26T08:11:39;98289.16;;;8.61;53.94
14273;BME280;7220;49.450;11.052;2023-04-26T08:15:40;98293.66;;;8.59;53.72
14273;BME280;7220;49.450;11.052;2023-04-26T08:19:41;98293.47;;;8.64;52.47
14273;BME280;7220;49.450;11.052;2023-04-26T08:23:41;98291.13;;;8.77;50.59
14273;BME280;7220;49.450;11.052;2023-04-26T08:27:41;98281.47;;;8.95;51.11
14273;BME280;7220;49.450;11.052;2023-04-26T08:31:43;98290.22;;;9.16;49.71
14273;BME280;7220;49.450;11.052;2023-04-26T08:35:44;98290.09;;;9.38;49.64
14273;BME280;7220;49.450;11.052;2023-04-26T08:39:44;98279.31;;;9.60;48.15
14273;BME280;7220;49.450;11.052;2023-04-26T08:43:46;98287.63;;;9.53;49.01
14273;BME280;7220;49.450;11.052;2023-04-26T08:47:48;98273.94;;;9.62;46.66
14273;BME280;7220;49.450;11.052;2023-04-26T08:51:50;98284.94;;;9.72;46.16
14273;BME280;7220;49.450;11.052;2023-04-26T08:55:50;98285.84;;;9.90;46.32
14273;BME280;7220;49.450;11.052;2023-04-26T08:59:52;98272.91;;;10.01;45.60
14273;BME280;7220;49.450;11.052;2023-04-26T09:03:55;98268.75;;;10.13;45.99
14273;BME280;7220;49.450;11.052;2023-04-26T09:08:01;98269.38;;;10.18;44.40
14273;BME280;7220;49.450;11.052;2023-04-26T09:12:03;98280.94;;;10.00;45.20
14273;BME280;7220;49.450;11.052;2023-04-26T09:16:03;98269.22;;;10.04;44.35
14273;BME280;7220;49.450;11.052;2023-04-26T09:24:16;98275.31;;;10.06;45.27
14273;BME280;7220;49.450;11.052;2023-04-26T09:28:21;98264.06;;;10.18;43.88
14273;BME280;7220;49.450;11.052;2023-04-26T09:32:21;98272.34;;;10.30;41.36
14273;BME280;7220;49.450;11.052;2023-04-26T09:36:21;98275.00;;;10.12;41.44
14273;BME280;7220;49.450;11.052;2023-04-26T09:40:22;98263.94;;;10.39;40.67
14273;BME280;7220;49.450;11.052;2023-04-26T09:44:23;98264.19;;;10.68;40.43
14273;BME280;7220;49.450;11.052;2023-04-26T09:48:28;98259.00;;;10.82;40.50
14273;BME280;7220;49.450;11.052;2023-04-26T09:52:29;98262.94;;;10.75;39.45
14273;BME280;7220;49.450;11.052;2023-04-26T09:56:30;98266.53;;;10.74;37.67
14273;BME280;7220;49.450;11.052;2023-04-26T10:00:30;98253.91;;;10.62;38.43
14273;BME280;7220;49.450;11.052;2023-04-26T10:04:31;98270.44;;;10.67;37.73
14273;BME280;7220;49.450;11.052;2023-04-26T10:08:31;98254.66;;;10.81;38.38
14273;BME280;7220;49.450;11.052;2023-04-26T10:12:33;98260.31;;;10.91;37.54
14273;BME280;7220;49.450;11.052;2023-04-26T10:16:33;98242.59;;;11.24;37.02
14273;BME280;7220;49.450;11.052;2023-04-26T10:20:39;98248.41;;;11.46;36.24
14273;BME280;7220;49.450;11.052;2023-04-26T10:24:42;98241.63;;;11.57;36.48
14273;BME280;7220;49.450;11.052;2023-04-26T10:37:14;98235.00;;;11.64;35.80
14273;BME280;7220;49.450;11.052;2023-04-26T10:41:30;98240.81;;;12.03;35.13
14273;BME280;7220;49.450;11.052;2023-04-26T10:45:30;98235.66;;;11.83;36.54
14273;BME280;7220;49.450;11.052;2023-04-26T10:49:43;98237.19;;;11.88;37.69
14273;BME280;7220;49.450;11.052;2023-04-26T10:57:51;98231.50;;;12.10;37.64
14273;BME280;7220;49.450;11.052;2023-04-26T11:01:51;98240.81;;;12.03;38.19
14273;BME280;7220;49.450;11.052;2023-04-26T11:05:53;98225.41;;;11.92;37.76
14273;BME280;7220;49.450;11.052;2023-04-26T11:09:54;98233.22;;;12.11;36.72
14273;BME280;7220;49.450;11.052;2023-04-26T11:13:54;98228.38;;;12.18;36.65
14273;BME280;7220;49.450;11.052;2023-04-26T11:17:55;98228.38;;;12.18;36.38
14273;BME280;7220;49.450;11.052;2023-04-26T11:21:56;98223.16;;;13.59;34.37
14273;BME280;7220;49.450;11.052;2023-04-26T11:26:00;98220.59;;;13.85;33.34
14273;BME280;7220;49.450;11.052;2023-04-26T11:30:04;98218.75;;;13.31;33.72
14273;BME280;7220;49.450;11.052;2023-04-26T11:34:04;98206.22;;;14.39;32.55
14273;BME280;7220;49.450;11.052;2023-04-26T11:38:05;98198.72;;;14.96;32.20
14273;BME280;7220;49.450;11.052;2023-04-26T11:42:10;98191.69;;;14.43;32.25
14273;BME280;7220;49.450;11.052;2023-04-26T11:46:10;98194.28;;;15.21;31.97
14273;BME280;7220;49.450;11.052;2023-04-26T11:50:11;98191.50;;;14.33;32.74
14273;BME280;7220;49.450;11.052;2023-04-26T11:54:26;98190.97;;;13.88;32.61
14273;BME280;7220;49.450;11.052;2023-04-26T11:58:26;98201.66;;;13.48;33.58
14273;BME280;7220;49.450;11.052;2023-04-26T12:02:28;98194.56;;;13.61;33.42
14273;BME280;7220;49.450;11.052;2023-04-26T12:06:31;98196.66;;;13.56;33.48
14273;BME280;7220;49.450;11.052;2023-04-26T12:10:34;98195.03;;;13.81;33.63
14273;BME280;7220;49.450;11.052;2023-04-26T12:14:36;98196.75;;;13.82;32.89
14273;BME280;7220;49.450;11.052;2023-04-26T12:18:37;98192.34;;;13.81;33.34
14273;BME280;7220;49.450;11.052;2023-04-26T12:22:37;98184.34;;;13.81;32.85
14273;BME280;7220;49.450;11.052;2023-04-26T12:26:42;98182.28;;;14.38;32.98
14273;BME280;7220;49.450;11.052;2023-04-26T12:30:43;98175.28;;;14.99;33.11
14273;BME280;7220;49.450;11.052;2023-04-26T12:34:43;98185.13;;;15.36;32.24
14273;BME280;7220;49.450;11.052;2023-04-26T12:38:43;98174.31;;;15.86;31.77
14273;BME280;7220;49.450;11.052;2023-04-26T12:42:47;98169.31;;;16.40;31.26
14273;BME280;7220;49.450;11.052;2023-04-26T12:46:48;98172.44;;;16.22;30.65
14273;BME280;7220;49.450;11.052;2023-04-26T12:50:48;98164.22;;;15.66;30.69
14273;BME280;7220;49.450;11.052;2023-04-26T12:54:49;98171.09;;;16.05;31.14
14273;BME280;7220;49.450;11.052;2023-04-26T12:58:49;98164.31;;;16.58;30.55
14273;BME280;7220;49.450;11.052;2023-04-26T13:02:49;98145.91;;;16.65;30.65
14273;BME280;7220;49.450;11.052;2023-04-26T13:06:50;98147.38;;;16.69;30.22
14273;BME280;7220;49.450;11.052;2023-04-26T13:10:50;98146.09;;;17.30;29.06
14273;BME280;7220;49.450;11.052;2023-04-26T13:14:51;98151.66;;;17.82;28.26
14273;BME280;7220;49.450;11.052;2023-04-26T13:18:51;98146.06;;;17.74;27.78
14273;BME280;7220;49.450;11.052;2023-04-26T13:22:51;98146.09;;;18.16;27.37
14273;BME280;7220;49.450;11.052;2023-04-26T13:26:52;98135.66;;;18.85;27.13
14273;BME280;7220;49.450;11.052;2023-04-26T13:30:52;98133.53;;;18.79;27.69
14273;BME280;7220;49.450;11.052;2023-04-26T13:34:53;98143.22;;;18.60;27.55
14273;BME280;7220;49.450;11.052;2023-04-26T13:38:54;98142.63;;;17.50;27.53
14273;BME280;7220;49.450;11.052;2023-04-26T13:42:54;98137.97;;;18.06;27.88
14273;BME280;7220;49.450;11.052;2023-04-26T13:46:54;98136.56;;;18.02;27.74
14273;BME280;7220;49.450;11.052;2023-04-26T13:50:59;98154.66;;;17.24;28.30
14273;BME280;7220;49.450;11.052;2023-04-26T13:55:00;98148.59;;;16.99;28.69
14273;BME280;7220;49.450;11.052;2023-04-26T13:59:00;98148.22;;;16.47;29.86
14273;BME280;7220;49.450;11.052;2023-04-26T14:03:02;98147.75;;;15.95;30.06
14273;BME280;7220;49.450;11.052;2023-04-26T14:07:03;98150.19;;;16.45;29.21
14273;BME280;7220;49.450;11.052;2023-04-26T14:11:04;98137.97;;;17.09;28.82
14273;BME280;7220;49.450;11.052;2023-04-26T14:15:04;98140.28;;;17.13;28.73
14273;BME280;7220;49.450;11.052;2023-04-26T14:19:05;98142.75;;;16.71;28.82
14273;BME280;7220;49.450;11.052;2023-04-26T14:23:05;98149.22;;;16.68;29.18
14273;BME280;7220;49.450;11.052;2023-04-26T14:27:06;98148.81;;;16.28;29.22
14273;BME280;7220;49.450;11.052;2023-04-26T14:31:06;98142.66;;;15.91;29.75
14273;BME280;7220;49.450;11.052;2023-04-26T14:35:07;98147.66;;;15.72;29.39
14273;BME280;7220;49.450;11.052;2023-04-26T14:39:07;98156.63;;;15.84;29.79
14273;BME280;7220;49.450;11.052;2023-04-26T14:43:08;98144.97;;;15.96;29.58
14273;BME280;7220;49.450;11.052;2023-04-26T14:47:09;98138.75;;;15.96;30.12
14273;BME280;7220;49.450;11.052;2023-04-26T14:51:09;98132.81;;;15.79;30.61
14273;BME280;7220;49.450;11.052;2023-04-26T14:55:10;98129.63;;;15.38;30.03
14273;BME280;7220;49.450;11.052;2023-04-26T14:59:10;98128.59;;;15.28;30.56
14273;BME280;7220;49.450;11.052;2023-04-26T15:03:10;98129.28;;;15.19;31.02
14273;BME280;7220;49.450;11.052;2023-04-26T15:07:11;98124.22;;;15.27;30.92
14273;BME280;7220;49.450;11.052;2023-04-26T15:11:12;98127.16;;;15.59;30.84
14273;BME280;7220;49.450;11.052;2023-04-26T15:15:12;98125.34;;;15.60;31.06
14273;BME280;7220;49.450;11.052;2023-04-26T15:19:13;98126.22;;;15.72;30.60
14273;BME280;7220;49.450;11.052;2023-04-26T15:23:13;98136.22;;;15.70;30.49
14273;BME280;7220;49.450;11.052;2023-04-26T15:27:14;98129.47;;;15.28;30.65
14273;BME280;7220;49.450;11.052;2023-04-26T15:31:14;98119.50;;;15.06;31.40
14273;BME280;7220;49.450;11.052;2023-04-26T15:35:14;98125.59;;;15.33;31.78
14273;BME280;7220;49.450;11.052;2023-04-26T15:39:15;98139.72;;;15.35;31.35
14273;BME280;7220;49.450;11.052;2023-04-26T15:43:15;98114.69;;;14.98;31.44
14273;BME280;7220;49.450;11.052;2023-04-26T15:47:16;98123.84;;;14.83;31.94
14273;BME280;7220;49.450;11.052;2023-04-26T15:51:16;98133.88;;;14.92;31.88
14273;BME280;7220;49.450;11.052;2023-04-26T15:55:17;98133.00;;;15.05;31.55
14273;BME280;7220;49.450;11.052;2023-04-26T15:59:17;98130.06;;;15.08;31.20
14273;BME280;7220;49.450;11.052;2023-04-26T16:03:17;98122.97;;;14.95;30.80
14273;BME280;7220;49.450;11.052;2023-04-26T16:07:18;98116.41;;;14.99;30.97
14273;BME280;7220;49.450;11.052;2023-04-26T16:11:18;98125.53;;;15.45;30.12
14273;BME280;7220;49.450;11.052;2023-04-26T16:15:19;98122.53;;;15.86;30.87
14273;BME280;7220;49.450;11.052;2023-04-26T16:19:19;98121.13;;;16.16;29.86
14273;BME280;7220;49.450;11.052;2023-04-26T16:23:20;98125.16;;;16.21;29.97
14273;BME280;7220;49.450;11.052;2023-04-26T16:27:20;98121.28;;;16.48;29.10
14273;BME280;7220;49.450;11.052;2023-04-26T16:31:21;98112.63;;;16.67;28.92
14273;BME280;7220;49.450;11.052;2023-04-26T16:35:21;98109.19;;;16.77;28.78
14273;BME280;7220;49.450;11.052;2023-04-26T16:39:22;98104.53;;;16.79;28.92
14273;BME280;7220;49.450;11.052;2023-04-26T16:43:24;98109.56;;;16.95;29.41
14273;BME280;7220;49.450;11.052;2023-04-26T16:47:25;98112.75;;;16.54;29.52
14273;BME280;7220;49.450;11.052;2023-04-26T16:51:26;98114.88;;;16.04;29.72
14273;BME280;7220;49.450;11.052;2023-04-26T16:55:26;98111.94;;;15.60;30.51
14273;BME280;7220;49.450;11.052;2023-04-26T16:59:27;98112.81;;;15.36;30.66
14273;BME280;7220;49.450;11.052;2023-04-26T17:03:27;98107.25;;;15.15;30.69
14273;BME280;7220;49.450;11.052;2023-04-26T17:07:27;98111.22;;;14.85;31.01
14273;BME280;7220;49.450;11.052;2023-04-26T17:11:28;98114.56;;;15.13;31.08
14273;BME280;7220;49.450;11.052;2023-04-26T17:15:28;98111.34;;;15.08;30.64
14273;BME280;7220;49.450;11.052;2023-04-26T17:19:29;98112.72;;;14.89;30.60
14273;BME280;7220;49.450;11.052;2023-04-26T17:23:30;98123.00;;;14.57;31.38
14273;BME280;7220;49.450;11.052;2023-04-26T17:27:32;98125.19;;;14.39;31.44
14273;BME280;7220;49.450;11.052;2023-04-26T17:31:32;98128.81;;;14.12;31.83
14273;BME280;7220;49.450;11.052;2023-04-26T17:35:33;98132.00;;;13.91;32.25
14273;BME280;7220;49.450;11.052;2023-04-26T17:39:33;98131.69;;;13.83;32.45
14273;BME280;7220;49.450;11.052;2023-04-26T17:43:33;98131.53;;;13.71;32.98
14273;BME280;7220;49.450;11.052;2023-04-26T17:47:34;98141.34;;;13.58;33.46
14273;BME280;7220;49.450;11.052;2023-04-26T17:51:34;98148.47;;;13.45;33.60
14273;BME280;7220;49.450;11.052;2023-04-26T17:55:35;98150.19;;;13.31;34.03
14273;BME280;7220;49.450;11.052;2023-04-26T17:59:35;98153.69;;;13.19;34.33
14273;BME280;7220;49.450;11.052;2023-04-26T18:03:36;98150.41;;;13.01;33.65
14273;BME280;7220;49.450;11.052;2023-04-26T18:07:36;98153.75;;;12.75;34.76
14273;BME280;7220;49.450;11.052;2023-04-26T18:11:37;98158.16;;;12.62;35.23
14273;BME280;7220;49.450;11.052;2023-04-26T18:15:38;98170.72;;;12.45;35.68
14273;BME280;7220;49.450;11.052;2023-04-26T18:19:38;98169.97;;;12.43;35.29
14273;BME280;7220;49.450;11.052;2023-04-26T18:23:38;98175.19;;;12.30;35.38
14273;BME280;7220;49.450;11.052;2023-04-26T18:27:39;98179.00;;;12.26;36.33
14273;BME280;7220;49.450;11.052;2023-04-26T18:31:39;98176.13;;;12.15;36.11
14273;BME280;7220;49.450;11.052;2023-04-26T18:35:39;98183.16;;;12.16;36.61
14273;BME280;7220;49.450;11.052;2023-04-26T18:39:40;98177.44;;;12.08;36.56
14273;BME280;7220;49.450;11.052;2023-04-26T18:43:40;98181.16;;;12.05;37.02
14273;BME280;7220;49.450;11.052;2023-04-26T18:47:40;98194.06;;;11.97;37.29
14273;BME280;7220;49.450;11.052;2023-04-26T18:51:41;98189.19;;;11.89;36.97
14273;BME280;7220;49.450;11.052;2023-04-26T18:55:41;98189.09;;;11.91;37.41
14273;BME280;7220;49.450;11.052;2023-04-26T18:59:41;98202.09;;;11.81;37.02
14273;BME280;7220;49.450;11.052;2023-04-26T19:03:41;98199.09;;;11.71;38.30
14273;BME280;7220;49.450;11.052;2023-04-26T19:07:42;98199.50;;;11.49;37.74
14273;BME280;7220;49.450;11.052;2023-04-26T19:11:43;98214.78;;;11.45;38.35
14273;BME280;7220;49.450;11.052;2023-04-26T19:15:43;98200.19;;;11.36;38.01
14273;BME280;7220;49.450;11.052;2023-04-26T19:19:43;98210.66;;;11.24;39.67
14273;BME280;7220;49.450;11.052;2023-04-26T19:23:44;98204.84;;;11.17;39.30
14273;BME280;7220;49.450;11.052;2023-04-26T19:27:44;98219.06;;;11.00;39.40
14273;BME280;7220;49.450;11.052;2023-04-26T19:31:45;98213.41;;;11.06;39.88
14273;BME280;7220;49.450;11.052;2023-04-26T19:35:45;98212.22;;;10.96;40.52
14273;BME280;7220;49.450;11.052;2023-04-26T19:39:45;98223.94;;;10.92;39.44
14273;BME280;7220;49.450;11.052;2023-04-26T19:43:45;98234.13;;;10.83;40.00
14273;BME280;7220;49.450;11.052;2023-04-26T19:47:47;98225.56;;;10.78;40.85
14273;BME280;7220;49.450;11.052;2023-04-26T19:51:47;98223.16;;;10.73;40.24
14273;BME280;7220;49.450;11.052;2023-04-26T19:55:47;98220.66;;;10.70;40.26
14273;BME280;7220;49.450;11.052;2023-04-26T19:59:48;98227.91;;;10.51;40.77
14273;BME280;7220;49.450;11.052;2023-04-26T20:03:48;98217.97;;;10.54;41.20
14273;BME280;7220;49.450;11.052;2023-04-26T20:07:48;98226.78;;;10.55;41.49
14273;BME280;7220;49.450;11.052;2023-04-26T20:11:48;98238.84;;;10.45;41.92
14273;BME280;7220;49.450;11.052;2023-04-26T20:15:49;98227.09;;;10.31;42.03
14273;BME280;7220;49.450;11.052;2023-04-26T20:19:49;98232.97;;;10.20;41.74
14273;BME280;7220;49.450;11.052;2023-04-26T20:23:49;98237.13;;;10.08;41.91
14273;BME280;7220;49.450;11.052;2023-04-26T20:27:50;98224.53;;;9.94;42.19
14273;BME280;7220;49.450;11.052;2023-04-26T20:31:50;98240.81;;;10.06;42.73
14273;BME280;7220;49.450;11.052;2023-04-26T20:35:51;98243.13;;;9.94;42.92
14273;BME280;7220;49.450;11.052;2023-04-26T20:39:52;98229.72;;;9.98;42.62
14273;BME280;7220;49.450;11.052;2023-04-26T20:43:52;98240.34;;;9.98;42.58
14273;BME280;7220;49.450;11.052;2023-04-26T20:47:52;98238.94;;;9.90;42.58
14273;BME280;7220;49.450;11.052;2023-04-26T20:51:53;98247.97;;;9.86;43.31
14273;BME280;7220;49.450;11.052;2023-04-26T20:55:53;98252.03;;;9.76;43.53
14273;BME280;7220;49.450;11.052;2023-04-26T20:59:54;98251.25;;;9.74;43.57
14273;BME280;7220;49.450;11.052;2023-04-26T21:03:54;98264.66;;;9.71;43.98
14273;BME280;7220;49.450;11.052;2023-04-26T21:07:54;98260.94;;;9.75;43.84
14273;BME280;7220;49.450;11.052;2023-04-26T21:11:55;98274.41;;;9.70;44.17
14273;BME280;7220;49.450;11.052;2023-04-26T21:15:55;98255.94;;;9.69;44.24
14273;BME280;7220;49.450;11.052;2023-04-26T21:19:56;98272.56;;;9.72;44.17
14273;BME280;7220;49.450;11.052;2023-04-26T21:23:56;98259.28;;;9.72;44.73
14273;BME280;7220;49.450;11.052;2023-04-26T21:27:56;98267.63;;;9.65;44.75
14273;BME280;7220;49.450;11.052;2023-04-26T21:31:57;98275.47;;;9.49;45.08
14273;BME280;7220;49.450;11.052;2023-04-26T21:35:58;98260.53;;;9.46;45.69
14273;BME280;7220;49.450;11.052;2023-04-26T21:39:58;98262.75;;;9.55;45.12